Time,TemperatureF,DewpointF,PressureIn,WindDirection,WindDirectionDegrees,WindSpeedMPH,WindSpeedGustMPH,Humidity,HourlyPrecipIn,Conditions,Clouds,dailyrainin,SoftwareType,DateUTC
2013-02-08 04:48:00,16.0,12.0,30.12,South,180,0.9,0.9,84,0.00,,,0.00,WUHU216HW,2013-02-08 10:48:00,
2013-02-08 07:00:00,14.4,10.5,30.14,South,180,0.4,0.4,84,0.00,,,0.00,WUHU216HW,2013-02-08 13:00:00,
2013-02-08 07:05:00,14.2,10.3,30.15,South,180,0.4,0.4,84,0.00,,,0.00,WUHU216HW,2013-02-08 13:05:00,
2013-02-08 07:10:00,14.0,10.1,30.15,South,180,1.3,2.2,84,0.00,,,0.00,WUHU216HW,2013-02-08 13:10:00,
2013-02-08 07:15:00,13.9,9.9,30.15,South,180,1.8,2.2,84,0.00,,,0.00,WUHU216HW,2013-02-08 13:15:00,
2013-02-08 07:20:00,13.5,9.5,30.15,South,180,1.8,2.5,84,0.00,,,0.00,WUHU216HW,2013-02-08 13:20:00,
2013-02-08 07:25:00,13.5,9.5,30.16,South,180,0.7,2.5,84,0.00,,,0.00,WUHU216HW,2013-02-08 13:25:00,
2013-02-08 07:30:00,13.5,9.5,30.16,South,180,1.1,2.2,84,0.00,,,0.00,WUHU216HW,2013-02-08 13:30:00,
2013-02-08 07:35:00,13.3,9.6,30.16,South,180,0.7,2.0,85,0.00,,,0.00,WUHU216HW,2013-02-08 13:35:00,
2013-02-08 07:40:00,13.1,8.9,30.16,South,180,0.4,1.6,83,0.00,,,0.00,WUHU216HW,2013-02-08 13:40:00,
2013-02-08 07:45:00,12.6,8.4,30.17,South,180,1.1,1.3,83,0.00,,,0.00,WUHU216HW,2013-02-08 13:45:00,
2013-02-08 07:50:00,12.8,8.8,30.17,South,180,1.1,1.8,84,0.00,,,0.00,WUHU216HW,2013-02-08 13:50:00,
2013-02-08 07:55:00,13.0,9.0,30.17,South,180,0.4,1.8,84,0.00,,,0.00,WUHU216HW,2013-02-08 13:55:00,
2013-02-08 08:00:00,13.3,9.4,30.17,South,180,0.4,1.6,84,0.00,,,0.00,WUHU216HW,2013-02-08 14:00:00,
2013-02-08 08:05:00,13.7,9.7,30.18,South,180,1.1,1.8,84,0.00,,,0.00,WUHU216HW,2013-02-08 14:05:00,
2013-02-08 08:10:00,13.9,9.9,30.18,South,180,1.8,2.5,84,0.00,,,0.00,WUHU216HW,2013-02-08 14:10:00,
2013-02-08 08:15:00,14.0,10.1,30.18,South,180,1.1,2.5,84,0.00,,,0.00,WUHU216HW,2013-02-08 14:15:00,
2013-02-08 08:20:00,14.4,10.5,30.19,South,180,1.8,2.5,84,0.00,,,0.00,WUHU216HW,2013-02-08 14:20:00,
2013-02-08 08:25:00,14.6,10.6,30.19,South,180,1.8,2.7,84,0.00,,,0.00,WUHU216HW,2013-02-08 14:25:00,
2013-02-08 08:30:00,14.8,10.8,30.20,South,180,2.2,3.6,84,0.00,,,0.00,WUHU216HW,2013-02-08 14:30:00,
2013-02-08 08:35:00,15.1,11.2,30.20,South,180,1.1,4.0,84,0.00,,,0.00,WUHU216HW,2013-02-08 14:35:00,
2013-02-08 08:40:00,15.3,11.3,30.19,South,180,0.9,4.0,84,0.00,,,0.00,WUHU216HW,2013-02-08 14:40:00,
2013-02-08 08:45:00,15.5,11.3,30.19,South,180,0.9,2.7,83,0.00,,,0.00,WUHU216HW,2013-02-08 14:45:00,
2013-02-08 08:50:00,15.8,11.4,30.19,South,180,1.3,2.5,82,0.00,,,0.00,WUHU216HW,2013-02-08 14:50:00,
2013-02-08 08:55:00,16.0,11.4,30.19,South,180,0.4,1.8,82,0.00,,,0.00,WUHU216HW,2013-02-08 14:55:00,
2013-02-08 09:00:00,16.0,11.3,30.19,South,180,0.4,1.8,81,0.00,,,0.00,WUHU216HW,2013-02-08 15:00:00,
2013-02-08 09:05:00,16.2,11.3,30.19,South,180,1.1,1.8,81,0.00,,,0.00,WUHU216HW,2013-02-08 15:05:00,
2013-02-08 09:10:00,16.2,11.3,30.20,South,180,0.2,1.6,81,0.00,,,0.00,WUHU216HW,2013-02-08 15:10:00,
2013-02-08 09:15:00,16.6,11.7,30.20,South,180,0.9,1.6,81,0.00,,,0.00,WUHU216HW,2013-02-08 15:15:00,
2013-02-08 09:20:00,16.9,12.1,30.20,South,180,0.9,1.6,81,0.00,,,0.00,WUHU216HW,2013-02-08 15:20:00,
2013-02-08 09:24:00,16.9,11.8,30.20,South,180,0.4,3.4,80,0.00,,,0.00,WUHU216HW,2013-02-08 15:24:00,
2013-02-08 09:30:00,17.1,12.0,30.20,South,180,0.4,3.4,80,0.00,,,0.00,WUHU216HW,2013-02-08 15:30:00,
2013-02-08 09:35:00,17.5,12.2,30.20,South,180,0.7,1.8,80,0.00,,,0.00,WUHU216HW,2013-02-08 15:35:00,
2013-02-08 09:40:00,17.8,12.6,30.20,South,180,0.9,1.8,80,0.00,,,0.00,WUHU216HW,2013-02-08 15:40:00,
2013-02-08 09:44:00,18.0,12.5,30.20,South,180,1.6,1.6,79,0.00,,,0.00,WUHU216HW,2013-02-08 15:44:00,
2013-02-08 09:49:00,18.4,13.1,30.20,South,180,0.4,1.8,80,0.00,,,0.00,WUHU216HW,2013-02-08 15:49:00,
2013-02-08 09:54:00,18.5,13.3,30.21,South,180,1.1,2.5,80,0.00,,,0.00,WUHU216HW,2013-02-08 15:54:00,
2013-02-08 09:59:00,19.1,13.9,30.20,South,180,1.8,2.5,80,0.00,,,0.00,WUHU216HW,2013-02-08 15:59:00,
2013-02-08 10:04:00,19.4,14.2,30.20,South,180,0.4,2.7,80,0.00,,,0.00,WUHU216HW,2013-02-08 16:04:00,
2013-02-08 10:10:00,20.0,14.8,30.20,South,180,0.2,2.7,80,0.00,,,0.00,WUHU216HW,2013-02-08 16:10:00,
2013-02-08 10:15:00,20.5,15.0,30.20,South,180,0.0,1.1,79,0.00,,,0.00,WUHU216HW,2013-02-08 16:15:00,
2013-02-08 10:20:00,20.9,15.4,30.20,South,180,0.7,1.1,79,0.00,,,0.00,WUHU216HW,2013-02-08 16:20:00,
2013-02-08 10:25:00,21.2,15.4,30.20,South,180,2.0,2.0,78,0.00,,,0.00,WUHU216HW,2013-02-08 16:25:00,
2013-02-08 10:30:00,21.4,15.6,30.20,South,180,0.7,2.7,78,0.00,,,0.00,WUHU216HW,2013-02-08 16:30:00,
2013-02-08 10:35:00,22.0,16.1,30.20,South,180,0.4,2.7,78,0.00,,,0.00,WUHU216HW,2013-02-08 16:35:00,
2013-02-08 10:40:00,22.7,16.6,30.20,South,180,1.8,2.5,77,0.00,,,0.00,WUHU216HW,2013-02-08 16:40:00,
2013-02-08 10:45:00,23.0,16.9,30.21,SSW,203,0.7,3.4,77,0.00,,,0.00,WUHU216HW,2013-02-08 16:45:00,
2013-02-08 10:50:00,23.4,17.3,30.21,South,180,0.7,3.4,77,0.00,,,0.00,WUHU216HW,2013-02-08 16:50:00,
2013-02-08 10:55:00,23.8,17.3,30.21,NNW,338,0.9,1.8,76,0.00,,,0.00,WUHU216HW,2013-02-08 16:55:00,
2013-02-08 11:00:00,24.1,17.7,30.21,NNE,23,0.4,1.8,76,0.00,,,0.00,WUHU216HW,2013-02-08 17:00:00,
2013-02-08 11:05:00,24.5,17.6,30.21,North,0,0.9,1.1,75,0.00,,,0.00,WUHU216HW,2013-02-08 17:05:00,
2013-02-08 11:10:00,24.8,18.0,30.21,North,0,0.9,1.3,75,0.00,,,0.00,WUHU216HW,2013-02-08 17:10:00,
2013-02-08 11:15:00,25.4,18.2,30.20,North,0,0.2,2.0,74,0.00,,,0.00,WUHU216HW,2013-02-08 17:15:00,
2013-02-08 11:20:00,25.7,18.3,30.20,North,0,0.4,2.0,73,0.00,,,0.00,WUHU216HW,2013-02-08 17:20:00,
2013-02-08 11:25:00,26.1,18.3,30.20,North,0,0.4,2.0,72,0.00,,,0.00,WUHU216HW,2013-02-08 17:25:00,
2013-02-08 11:30:00,26.6,18.8,30.20,NNW,338,2.0,2.9,72,0.00,,,0.00,WUHU216HW,2013-02-08 17:30:00,
2013-02-08 11:35:00,27.5,19.7,30.20,North,0,2.7,2.9,72,0.00,,,0.00,WUHU216HW,2013-02-08 17:35:00,
2013-02-08 11:40:00,29.5,21.0,30.20,North,0,1.3,3.1,70,0.00,,,0.00,WUHU216HW,2013-02-08 17:40:00,
2013-02-08 11:45:00,32.0,23.0,30.20,North,0,1.3,3.1,69,0.00,,,0.00,WUHU216HW,2013-02-08 17:45:00,
2013-02-08 11:50:00,34.7,24.8,30.20,North,0,1.1,2.5,67,0.00,,,0.00,WUHU216HW,2013-02-08 17:50:00,
2013-02-08 11:55:00,37.8,25.9,30.20,North,0,1.1,1.6,62,0.00,,,0.00,WUHU216HW,2013-02-08 17:55:00,
2013-02-08 12:00:00,40.7,27.5,30.20,North,0,1.1,1.6,59,0.00,,,0.00,WUHU216HW,2013-02-08 18:00:00,
2013-02-08 12:05:00,42.3,26.7,30.20,North,0,0.7,1.8,54,0.00,,,0.00,WUHU216HW,2013-02-08 18:05:00,
2013-02-08 12:10:00,43.6,26.6,30.20,North,0,0.0,2.0,51,0.00,,,0.00,WUHU216HW,2013-02-08 18:10:00,
2013-02-08 12:15:00,45.2,26.6,30.20,NNW,338,2.0,2.5,48,0.00,,,0.00,WUHU216HW,2013-02-08 18:15:00,
2013-02-08 12:20:00,45.9,25.7,30.19,North,0,2.7,4.0,45,0.00,,,0.00,WUHU216HW,2013-02-08 18:20:00,
2013-02-08 12:25:00,46.1,24.7,30.20,North,0,2.2,4.0,43,0.00,,,0.00,WUHU216HW,2013-02-08 18:25:00,
2013-02-08 12:30:00,46.4,24.5,30.19,North,0,2.5,2.9,42,0.00,,,0.00,WUHU216HW,2013-02-08 18:30:00,
2013-02-08 12:35:00,48.2,24.4,30.19,North,0,0.0,2.9,39,0.00,,,0.00,WUHU216HW,2013-02-08 18:35:00,
2013-02-08 12:40:00,50.8,26.7,30.19,North,0,1.3,2.5,39,0.00,,,0.00,WUHU216HW,2013-02-08 18:40:00,
2013-02-08 12:45:00,51.5,26.6,30.19,North,0,1.1,2.2,38,0.00,,,0.00,WUHU216HW,2013-02-08 18:45:00,
2013-02-08 12:50:00,52.0,24.3,30.19,North,0,1.1,2.2,34,0.00,,,0.00,WUHU216HW,2013-02-08 18:50:00,
2013-02-08 12:55:00,52.9,25.8,30.19,North,0,0.7,1.1,35,0.00,,,0.00,WUHU216HW,2013-02-08 18:55:00,
2013-02-08 13:00:00,53.6,25.7,30.19,North,0,0.7,1.1,34,0.00,,,0.00,WUHU216HW,2013-02-08 19:00:00,
2013-02-08 13:05:00,54.5,25.1,30.19,North,0,0.9,1.1,32,0.00,,,0.00,WUHU216HW,2013-02-08 19:05:00,
2013-02-08 13:10:00,54.0,24.7,30.19,North,0,0.7,2.2,32,0.00,,,0.00,WUHU216HW,2013-02-08 19:10:00,
2013-02-08 13:15:00,54.4,25.0,30.19,North,0,0.0,2.2,32,0.00,,,0.00,WUHU216HW,2013-02-08 19:15:00,
2013-02-08 13:20:00,54.5,24.5,30.19,North,0,0.9,1.1,31,0.00,,,0.00,WUHU216HW,2013-02-08 19:20:00,
2013-02-08 13:25:00,56.0,26.4,30.19,North,0,0.7,1.1,32,0.00,,,0.00,WUHU216HW,2013-02-08 19:25:00,
2013-02-08 13:30:00,56.9,24.9,30.19,North,0,0.2,1.1,29,0.00,,,0.00,WUHU216HW,2013-02-08 19:30:00,
2013-02-08 13:35:00,56.9,24.9,30.19,North,0,0.4,1.1,29,0.00,,,0.00,WUHU216HW,2013-02-08 19:35:00,
2013-02-08 13:40:00,56.5,24.5,30.19,North,0,0.7,1.1,29,0.00,,,0.00,WUHU216HW,2013-02-08 19:40:00,
2013-02-08 13:45:00,56.2,24.2,30.19,North,0,0.2,1.1,29,0.00,,,0.00,WUHU216HW,2013-02-08 19:45:00,
2013-02-08 13:50:00,56.7,23.8,30.18,NNE,23,0.2,1.1,28,0.00,,,0.00,WUHU216HW,2013-02-08 19:50:00,
2013-02-08 13:55:00,57.2,24.2,30.18,North,0,0.4,1.1,28,0.00,,,0.00,WUHU216HW,2013-02-08 19:55:00,
2013-02-08 14:00:00,58.3,24.2,30.18,North,0,0.4,1.1,27,0.00,,,0.00,WUHU216HW,2013-02-08 20:00:00,
2013-02-08 14:05:00,59.2,23.1,30.18,WNW,293,0.0,0.9,25,0.00,,,0.00,WUHU216HW,2013-02-08 20:05:00,
2013-02-08 14:10:00,59.4,23.1,30.18,North,0,0.0,0.9,25,0.00,,,0.00,WUHU216HW,2013-02-08 20:10:00,
2013-02-08 14:15:00,59.6,23.3,30.18,WNW,293,1.3,1.3,25,0.00,,,0.00,WUHU216HW,2013-02-08 20:15:00,
2013-02-08 14:20:00,59.9,23.7,30.18,NW,315,0.0,2.0,25,0.00,,,0.00,WUHU216HW,2013-02-08 20:20:00,
2013-02-08 14:25:00,58.9,21.8,30.18,NW,315,0.0,2.0,24,0.00,,,0.00,WUHU216HW,2013-02-08 20:25:00,
2013-02-08 14:30:00,58.3,22.2,30.18,NNE,23,0.0,0.9,25,0.00,,,0.00,WUHU216HW,2013-02-08 20:30:00,
2013-02-08 14:35:00,59.4,25.1,30.18,North,0,0.0,0.9,27,0.00,,,0.00,WUHU216HW,2013-02-08 20:35:00,
2013-02-08 14:40:00,60.7,23.3,30.18,North,0,0.4,0.9,24,0.00,,,0.00,WUHU216HW,2013-02-08 20:40:00,
2013-02-08 14:45:00,61.2,23.8,30.18,North,0,0.7,1.1,24,0.00,,,0.00,WUHU216HW,2013-02-08 20:45:00,
2013-02-08 14:50:00,61.6,23.0,30.17,North,0,0.4,1.1,23,0.00,,,0.00,WUHU216HW,2013-02-08 20:50:00,
2013-02-08 14:55:00,61.6,23.0,30.18,North,0,0.4,0.7,23,0.00,,,0.00,WUHU216HW,2013-02-08 20:55:00,
2013-02-08 15:00:00,61.7,23.2,30.18,North,0,0.4,0.7,23,0.00,,,0.00,WUHU216HW,2013-02-08 21:00:00,
2013-02-08 15:05:00,61.7,23.2,30.17,North,0,0.4,1.1,23,0.00,,,0.00,WUHU216HW,2013-02-08 21:05:00,
2013-02-08 15:10:00,61.7,23.2,30.18,North,0,0.9,1.1,23,0.00,,,0.00,WUHU216HW,2013-02-08 21:10:00,
2013-02-08 15:15:00,61.6,21.2,30.18,NNW,338,1.1,1.6,21,0.00,,,0.00,WUHU216HW,2013-02-08 21:15:00,
2013-02-08 15:20:00,60.7,21.3,30.17,NNW,338,0.7,1.6,22,0.00,,,0.00,WUHU216HW,2013-02-08 21:20:00,
2013-02-08 15:25:00,60.8,22.5,30.17,NNW,338,0.9,1.1,23,0.00,,,0.00,WUHU216HW,2013-02-08 21:25:00,
2013-02-08 15:30:00,61.0,23.6,30.18,NNW,338,0.0,1.1,24,0.00,,,0.00,WUHU216HW,2013-02-08 21:30:00,
2013-02-08 15:35:00,60.8,21.5,30.17,NNW,338,1.1,1.1,22,0.00,,,0.00,WUHU216HW,2013-02-08 21:35:00,
2013-02-08 15:40:00,59.4,20.3,30.18,NNW,338,1.8,2.2,22,0.00,,,0.00,WUHU216HW,2013-02-08 21:40:00,
2013-02-08 15:45:00,58.0,19.1,30.17,North,0,1.3,2.9,22,0.00,,,0.00,WUHU216HW,2013-02-08 21:45:00,
2013-02-08 15:50:00,57.1,20.3,30.17,NW,315,0.4,2.9,24,0.00,,,0.00,WUHU216HW,2013-02-08 21:50:00,
2013-02-08 15:55:00,56.9,21.1,30.17,NNW,338,1.6,1.8,25,0.00,,,0.00,WUHU216HW,2013-02-08 21:55:00,
2013-02-08 16:00:00,57.4,20.5,30.17,NNW,338,1.1,2.5,24,0.00,,,0.00,WUHU216HW,2013-02-08 22:00:00,
2013-02-08 16:05:00,57.2,19.5,30.17,NNW,338,1.8,2.5,23,0.00,,,0.00,WUHU216HW,2013-02-08 22:05:00,
2013-02-08 16:10:00,55.8,19.2,30.17,NNW,338,1.8,2.5,24,0.00,,,0.00,WUHU216HW,2013-02-08 22:10:00,
2013-02-08 16:15:00,54.0,18.5,30.17,NNW,338,1.1,2.5,25,0.00,,,0.00,WUHU216HW,2013-02-08 22:15:00,
2013-02-08 16:20:00,53.5,18.1,30.18,NNW,338,0.9,1.8,25,0.00,,,0.00,WUHU216HW,2013-02-08 22:20:00,
2013-02-08 16:25:00,52.7,17.5,30.18,NNW,338,1.8,2.2,25,0.00,,,0.00,WUHU216HW,2013-02-08 22:25:00,
2013-02-08 16:30:00,50.6,17.6,30.18,NNW,338,0.9,2.2,27,0.00,,,0.00,WUHU216HW,2013-02-08 22:30:00,
2013-02-08 16:35:00,48.2,16.5,30.18,NNW,338,0.0,2.0,28,0.00,,,0.00,WUHU216HW,2013-02-08 22:35:00,
2013-02-08 16:40:00,45.7,16.1,30.17,NNW,338,0.0,1.1,30,0.00,,,0.00,WUHU216HW,2013-02-08 22:40:00,
2013-02-08 16:45:00,42.8,13.5,30.17,NNW,338,0.0,0.0,30,0.00,,,0.00,WUHU216HW,2013-02-08 22:45:00,
2013-02-08 16:50:00,40.3,12.1,30.17,NNW,338,0.0,0.0,31,0.00,,,0.00,WUHU216HW,2013-02-08 22:50:00,
2013-02-08 16:55:00,38.2,10.8,30.17,NNW,338,0.0,0.0,32,0.00,,,0.00,WUHU216HW,2013-02-08 22:55:00,
2013-02-08 17:00:00,36.7,10.8,30.17,NNW,338,0.0,0.0,34,0.00,,,0.00,WUHU216HW,2013-02-08 23:00:00,
2013-02-08 17:05:00,34.6,9.6,30.17,NW,315,1.3,1.3,35,0.00,,,0.00,WUHU216HW,2013-02-08 23:05:00,
2013-02-08 17:10:00,32.0,8.6,30.17,NW,315,0.4,1.3,37,0.00,,,0.00,WUHU216HW,2013-02-08 23:10:00,
2013-02-08 17:15:00,30.6,7.3,30.17,WNW,293,0.4,1.3,37,0.00,,,0.00,WUHU216HW,2013-02-08 23:15:00,
2013-02-08 17:20:00,29.7,7.1,30.17,NW,315,0.2,0.7,38,0.00,,,0.00,WUHU216HW,2013-02-08 23:20:00,
2013-02-08 17:25:00,28.6,7.4,30.17,North,0,0.0,1.1,40,0.00,,,0.00,WUHU216HW,2013-02-08 23:25:00,
2013-02-08 17:30:00,27.9,6.8,30.17,ENE,68,0.0,1.1,40,0.00,,,0.00,WUHU216HW,2013-02-08 23:30:00,
2013-02-08 17:35:00,27.0,6.4,30.17,SE,135,0.0,0.0,41,0.00,,,0.00,WUHU216HW,2013-02-08 23:35:00,
2013-02-08 17:40:00,25.6,6.0,30.17,WNW,293,0.0,0.9,43,0.00,,,0.00,WUHU216HW,2013-02-08 23:40:00,
2013-02-08 17:45:00,24.7,5.8,30.17,WNW,293,0.0,0.9,44,0.00,,,0.00,WUHU216HW,2013-02-08 23:45:00,
2013-02-08 17:50:00,23.8,5.0,30.17,WNW,293,0.0,0.7,44,0.00,,,0.00,WUHU216HW,2013-02-08 23:50:00,
2013-02-08 17:55:00,23.2,5.0,30.17,WNW,293,0.0,0.7,45,0.00,,,0.00,WUHU216HW,2013-02-08 23:55:00,
2013-02-08 18:00:00,22.7,5.0,30.17,West,270,0.0,0.4,46,0.00,,,0.00,WUHU216HW,2013-02-09 00:00:00,
2013-02-08 18:05:00,22.0,4.7,30.17,West,270,0.0,0.0,47,0.00,,,0.00,WUHU216HW,2013-02-09 00:05:00,
2013-02-08 18:10:00,21.6,4.9,30.17,West,270,0.0,0.0,48,0.00,,,0.00,WUHU216HW,2013-02-09 00:10:00,
2013-02-08 18:15:00,21.2,4.5,30.17,West,270,0.0,0.0,48,0.00,,,0.00,WUHU216HW,2013-02-09 00:15:00,
2013-02-08 18:20:00,20.5,4.3,30.17,West,270,0.0,0.0,49,0.00,,,0.00,WUHU216HW,2013-02-09 00:20:00,
2013-02-08 18:25:00,20.2,4.0,30.17,ESE,113,0.0,0.0,49,0.00,,,0.00,WUHU216HW,2013-02-09 00:25:00,
2013-02-08 18:30:00,19.8,4.2,30.17,ESE,113,0.0,0.0,50,0.00,,,0.00,WUHU216HW,2013-02-09 00:30:00,
2013-02-08 18:35:00,19.4,3.8,30.17,ESE,113,0.0,0.0,50,0.00,,,0.00,WUHU216HW,2013-02-09 00:35:00,
2013-02-08 18:40:00,18.9,3.3,30.17,ESE,113,0.0,0.0,50,0.00,,,0.00,WUHU216HW,2013-02-09 00:40:00,
2013-02-08 18:45:00,18.4,3.3,30.17,SE,135,0.4,0.4,51,0.00,,,0.00,WUHU216HW,2013-02-09 00:45:00,
2013-02-08 18:50:00,17.6,3.0,30.17,SE,135,0.2,0.4,52,0.00,,,0.00,WUHU216HW,2013-02-09 00:50:00,
2013-02-08 18:55:00,16.9,2.7,30.17,East,90,0.9,0.9,53,0.00,,,0.00,WUHU216HW,2013-02-09 00:55:00,
2013-02-08 19:00:00,16.6,2.3,30.17,East,90,0.0,0.9,53,0.00,,,0.00,WUHU216HW,2013-02-09 01:00:00,
2013-02-08 19:05:00,16.0,1.8,30.17,East,90,0.0,0.7,53,0.00,,,0.00,WUHU216HW,2013-02-09 01:05:00,
2013-02-08 19:10:00,15.5,1.7,30.17,ESE,113,0.0,0.7,54,0.00,,,0.00,WUHU216HW,2013-02-09 01:10:00,
2013-02-08 19:15:00,14.9,1.2,30.17,ESE,113,0.4,0.4,54,0.00,,,0.00,WUHU216HW,2013-02-09 01:15:00,
2013-02-08 19:20:00,14.6,1.3,30.17,East,90,0.4,0.9,55,0.00,,,0.00,WUHU216HW,2013-02-09 01:20:00,
2013-02-08 19:25:00,14.0,0.7,30.17,East,90,0.2,0.9,55,0.00,,,0.00,WUHU216HW,2013-02-09 01:25:00,
2013-02-08 19:30:00,14.0,1.5,30.18,SE,135,0.0,0.7,57,0.00,,,0.00,WUHU216HW,2013-02-09 01:30:00,
2013-02-08 19:35:00,13.7,2.0,30.18,SE,135,0.0,0.2,59,0.00,,,0.00,WUHU216HW,2013-02-09 01:35:00,
2013-02-08 19:40:00,13.7,1.5,30.18,SE,135,0.0,0.0,58,0.00,,,0.00,WUHU216HW,2013-02-09 01:40:00,
2013-02-08 19:45:00,13.5,1.8,30.18,SE,135,0.0,0.0,59,0.00,,,0.00,WUHU216HW,2013-02-09 01:45:00,
2013-02-08 19:50:00,13.7,2.0,30.17,ESE,113,0.0,0.0,59,0.00,,,0.00,WUHU216HW,2013-02-09 01:50:00,
2013-02-08 19:55:00,13.5,2.2,30.18,SE,135,0.0,0.0,60,0.00,,,0.00,WUHU216HW,2013-02-09 01:55:00,
2013-02-08 20:00:00,13.5,2.2,30.18,SE,135,0.0,0.0,60,0.00,,,0.00,WUHU216HW,2013-02-09 02:00:00,
2013-02-08 20:05:00,13.3,1.6,30.17,SE,135,0.0,0.0,59,0.00,,,0.00,WUHU216HW,2013-02-09 02:05:00,
2013-02-08 20:10:00,13.0,1.6,30.18,WNW,293,0.0,0.0,60,0.00,,,0.00,WUHU216HW,2013-02-09 02:10:00,
2013-02-08 20:15:00,13.0,1.6,30.17,East,90,0.7,0.7,60,0.00,,,0.00,WUHU216HW,2013-02-09 02:15:00,
2013-02-08 20:20:00,12.6,1.6,30.18,ESE,113,0.0,0.9,61,0.00,,,0.00,WUHU216HW,2013-02-09 02:20:00,
2013-02-08 20:25:00,12.6,2.0,30.18,ESE,113,0.4,0.9,62,0.00,,,0.00,WUHU216HW,2013-02-09 02:25:00,
2013-02-08 20:30:00,12.6,2.0,30.18,ESE,113,0.2,0.7,62,0.00,,,0.00,WUHU216HW,2013-02-09 02:30:00,
2013-02-08 20:35:00,12.2,1.6,30.18,East,90,0.7,1.1,62,0.00,,,0.00,WUHU216HW,2013-02-09 02:35:00,
2013-02-08 20:40:00,11.9,1.3,30.17,East,90,0.7,1.1,62,0.00,,,0.00,WUHU216HW,2013-02-09 02:40:00,
2013-02-08 20:45:00,11.2,1.3,30.18,ESE,113,0.2,0.7,64,0.00,,,0.00,WUHU216HW,2013-02-09 02:45:00,
2013-02-08 20:50:00,10.6,1.1,30.18,East,90,1.1,1.1,65,0.00,,,0.00,WUHU216HW,2013-02-09 02:50:00,
2013-02-08 20:55:00,10.4,1.3,30.17,ESE,113,0.4,1.1,66,0.00,,,0.00,WUHU216HW,2013-02-09 02:55:00,
2013-02-08 21:00:00,10.1,0.3,30.17,SE,135,0.0,1.1,64,0.00,,,0.00,WUHU216HW,2013-02-09 03:00:00,
2013-02-08 21:05:00,10.1,0.5,30.18,ESE,113,0.4,0.4,65,0.00,,,0.00,WUHU216HW,2013-02-09 03:05:00,
2013-02-08 21:10:00,10.6,1.5,30.17,ESE,113,0.0,0.7,66,0.00,,,0.00,WUHU216HW,2013-02-09 03:10:00,
2013-02-08 21:15:00,10.8,1.5,30.17,ESE,113,0.4,0.7,66,0.00,,,0.00,WUHU216HW,2013-02-09 03:15:00,
2013-02-08 21:20:00,10.6,1.5,30.17,ESE,113,0.0,0.4,66,0.00,,,0.00,WUHU216HW,2013-02-09 03:20:00,
2013-02-08 21:25:00,11.0,2.4,30.17,ESE,113,1.1,1.1,68,0.00,,,0.00,WUHU216HW,2013-02-09 03:25:00,
2013-02-08 21:30:00,11.2,2.3,30.17,SE,135,0.9,1.1,67,0.00,,,0.00,WUHU216HW,2013-02-09 03:30:00,
2013-02-08 21:35:00,10.6,2.1,30.17,ESE,113,1.3,1.3,68,0.00,,,0.00,WUHU216HW,2013-02-09 03:35:00,
2013-02-08 21:40:00,10.6,2.7,30.18,East,90,1.3,1.6,70,0.00,,,0.00,WUHU216HW,2013-02-09 03:40:00,
2013-02-08 21:45:00,10.8,2.5,30.17,East,90,0.4,1.6,69,0.00,,,0.00,WUHU216HW,2013-02-09 03:45:00,
2013-02-08 21:50:00,10.6,2.1,30.18,ESE,113,0.4,1.6,68,0.00,,,0.00,WUHU216HW,2013-02-09 03:50:00,
2013-02-08 21:55:00,10.4,1.9,30.18,East,90,0.0,1.1,68,0.00,,,0.00,WUHU216HW,2013-02-09 03:55:00,
2013-02-08 22:00:00,10.1,1.2,30.18,East,90,0.4,1.1,67,0.00,,,0.00,WUHU216HW,2013-02-09 04:00:00,
2013-02-08 22:05:00,9.9,1.1,30.18,ESE,113,0.7,0.9,67,0.00,,,0.00,WUHU216HW,2013-02-09 04:05:00,
2013-02-08 22:10:00,9.7,1.2,30.17,ESE,113,0.4,0.9,68,0.00,,,0.00,WUHU216HW,2013-02-09 04:10:00,
2013-02-08 22:15:00,9.7,2.4,30.17,SE,135,0.4,1.1,72,0.00,,,0.00,WUHU216HW,2013-02-09 04:15:00,
2013-02-08 22:20:00,9.4,1.5,30.17,ESE,113,1.3,1.3,70,0.00,,,0.00,WUHU216HW,2013-02-09 04:20:00,
2013-02-08 22:25:00,9.7,3.1,30.17,ESE,113,1.3,2.2,74,0.00,,,0.00,WUHU216HW,2013-02-09 04:25:00,
2013-02-08 22:30:00,10.3,3.0,30.17,East,90,1.3,2.2,72,0.00,,,0.00,WUHU216HW,2013-02-09 04:30:00,
2013-02-08 22:35:00,10.1,2.5,30.17,East,90,1.1,1.8,71,0.00,,,0.00,WUHU216HW,2013-02-09 04:35:00,
2013-02-08 22:40:00,9.7,2.4,30.17,ESE,113,0.2,1.8,72,0.00,,,0.00,WUHU216HW,2013-02-09 04:40:00,
2013-02-08 22:45:00,9.4,1.5,30.17,East,90,1.1,1.8,70,0.00,,,0.00,WUHU216HW,2013-02-09 04:45:00,
2013-02-08 22:50:00,9.2,1.4,30.17,East,90,1.1,1.8,70,0.00,,,0.00,WUHU216HW,2013-02-09 04:50:00,
2013-02-08 22:55:00,9.2,1.4,30.16,East,90,1.6,2.0,70,0.00,,,0.00,WUHU216HW,2013-02-09 04:55:00,
2013-02-08 23:00:00,9.0,1.3,30.15,East,90,1.1,2.0,70,0.00,,,0.00,WUHU216HW,2013-02-09 05:00:00,
2013-02-08 23:05:00,9.2,1.7,30.15,East,90,2.5,3.8,71,0.00,,,0.00,WUHU216HW,2013-02-09 05:05:00,
2013-02-08 23:10:00,9.5,2.3,30.15,ESE,113,1.6,3.8,72,0.00,,,0.00,WUHU216HW,2013-02-09 05:10:00,
2013-02-08 23:15:00,9.7,3.1,30.16,East,90,1.6,2.7,74,0.00,,,0.00,WUHU216HW,2013-02-09 05:15:00,
2013-02-08 23:20:00,9.9,2.9,30.16,East,90,1.3,2.7,73,0.00,,,0.00,WUHU216HW,2013-02-09 05:20:00,
2013-02-08 23:25:00,9.7,2.4,30.17,East,90,1.8,2.2,72,0.00,,,0.00,WUHU216HW,2013-02-09 05:25:00,
2013-02-08 23:30:00,9.7,2.4,30.17,East,90,2.5,2.5,72,0.00,,,0.00,WUHU216HW,2013-02-09 05:30:00,
2013-02-08 23:35:00,9.7,2.7,30.17,ESE,113,2.0,3.1,73,0.00,,,0.00,WUHU216HW,2013-02-09 05:35:00,
2013-02-08 23:40:00,9.9,2.9,30.17,ESE,113,2.5,3.4,73,0.00,,,0.00,WUHU216HW,2013-02-09 05:40:00,
2013-02-08 23:45:00,9.7,2.7,30.17,East,90,2.0,3.4,73,0.00,,,0.00,WUHU216HW,2013-02-09 05:45:00,
2013-02-08 23:50:00,9.7,2.7,30.17,East,90,1.6,2.5,73,0.00,,,0.00,WUHU216HW,2013-02-09 05:50:00,
2013-02-08 23:55:00,9.7,2.7,30.17,East,90,1.8,2.5,73,0.00,,,0.00,WUHU216HW,2013-02-09 05:55:00,